Time;durP1;ratioP1;P1;durP2;ratioP2;P2;SDS_P1;SDS_P2;PMS_P1;PMS_P2;Temp;Humidity;BMP_temperature;BMP_pressure;BME280_temperature;BME280_humidity;BME280_pressure;Samples;Min_cycle;Max_cycle;Signal;HPM_P1;HPM_P2
2024/05/08 00:00:41;;;;;;;11.13;6.40;;;;;;;11.31;92.95;102245.44;10946961;26;24117;-20
2024/05/08 00:05:47;;;;;;;9.93;5.72;;;;;;;11.26;92.39;102252.75;10947031;26;20011;-20
2024/05/08 00:10:51;;;;;;;13.38;6.43;;;;;;;11.22;92.06;102252.53;10942495;26;20026;-20
2024/05/08 00:15:55;;;;;;;11.02;6.20;;;;;;;11.14;92.42;102255.84;10940220;26;20016;-19
2024/05/08 00:21:01;;;;;;;12.63;6.53;;;;;;;11.09;92.73;102253.22;10942513;26;20027;-20
2024/05/08 00:26:06;;;;;;;10.18;5.85;;;;;;;11.06;93.42;102245.72;10927093;26;20677;-19
2024/05/08 00:31:09;;;;;;;10.65;6.18;;;;;;;10.97;93.52;102250.91;10912932;26;20014;-20
2024/05/08 00:36:21;;;;;;;12.02;6.47;;;;;;;10.92;94.56;102250.94;10924670;26;20650;-18
2024/05/08 00:41:25;;;;;;;13.45;6.80;;;;;;;10.84;94.96;102238.09;10900240;26;20026;-20
2024/05/08 00:46:29;;;;;;;12.23;6.63;;;;;;;10.82;94.45;102240.28;10925453;26;20830;-19
2024/05/08 00:51:35;;;;;;;12.10;6.55;;;;;;;10.69;95.61;102243.59;10941063;26;20401;-20
2024/05/08 00:56:40;;;;;;;11.60;6.43;;;;;;;10.64;95.81;102238.25;10927525;26;20050;-20
2024/05/08 01:01:44;;;;;;;13.18;6.75;;;;;;;10.56;96.74;102247.72;10903718;26;20099;-19
2024/05/08 01:06:51;;;;;;;13.23;7.38;;;;;;;10.55;96.76;102251.50;10940111;26;20016;-19
2024/05/08 01:11:56;;;;;;;12.75;6.68;;;;;;;10.55;96.72;102251.50;10935451;26;20125;-19
2024/05/08 01:17:00;;;;;;;12.77;7.03;;;;;;;10.50;97.07;102245.34;10918810;26;20010;-19
2024/05/08 01:22:08;;;;;;;14.27;7.30;;;;;;;10.47;97.21;102252.09;10934048;26;20613;-20
2024/05/08 01:27:15;;;;;;;12.95;6.90;;;;;;;10.40;98.26;102259.66;10949592;26;20093;-20
2024/05/08 01:32:18;;;;;;;11.38;6.85;;;;;;;10.34;97.75;102269.66;10941235;26;20011;-20
2024/05/08 01:37:22;;;;;;;12.13;6.70;;;;;;;10.28;98.38;102262.69;10896965;26;20624;-19
2024/05/08 01:42:29;;;;;;;12.93;7.38;;;;;;;10.26;98.32;102250.63;10929934;26;20387;-20
2024/05/08 01:47:32;;;;;;;15.68;8.13;;;;;;;10.25;98.31;102254.41;10943240;26;22416;-19
2024/05/08 01:52:36;;;;;;;14.50;7.60;;;;;;;10.14;98.53;102256.34;10921878;26;20158;-20
2024/05/08 01:57:43;;;;;;;12.98;7.47;;;;;;;10.13;99.50;102267.38;10953395;26;22218;-20
2024/05/08 02:02:51;;;;;;;14.45;7.65;;;;;;;10.22;98.57;102273.75;10939457;26;20635;-20
2024/05/08 02:07:55;;;;;;;12.20;6.82;;;;;;;10.27;98.98;102277.22;10931443;26;20011;-19
2024/05/08 02:13:01;;;;;;;12.40;7.35;;;;;;;10.26;99.10;102275.59;10948754;26;20742;-19
2024/05/08 02:18:06;;;;;;;13.38;7.68;;;;;;;10.22;98.76;102277.25;10948571;26;20220;-19
2024/05/08 02:23:10;;;;;;;13.95;7.32;;;;;;;10.19;98.87;102287.75;10916723;26;20018;-19
2024/05/08 02:28:16;;;;;;;;;;;;;;;10.13;99.16;102286.97;10950642;26;20027;-20
2024/05/08 02:33:20;;;;;;;15.20;6.72;;;;;;;10.14;99.20;102285.09;10940266;26;20614;-19
2024/05/08 02:38:24;;;;;;;14.50;6.70;;;;;;;10.06;99.68;102287.28;10934691;26;20189;-20
2024/05/08 02:43:30;;;;;;;14.05;7.47;;;;;;;10.03;100.00;102298.53;10935324;26;20911;-20
2024/05/08 02:48:34;;;;;;;13.32;7.28;;;;;;;10.09;100.00;102302.03;10934144;26;20012;-20
2024/05/08 02:53:38;;;;;;;14.68;6.85;;;;;;;10.10;100.00;102309.00;10940756;26;20214;-19
2024/05/08 02:58:46;;;;;;;13.43;7.40;;;;;;;10.12;100.00;102306.84;10933082;26;20011;-19
2024/05/08 03:03:50;;;;;;;14.80;7.60;;;;;;;10.14;100.00;102314.63;10919548;26;20234;-19
2024/05/08 03:08:54;;;;;;;14.85;7.28;;;;;;;10.11;100.00;102315.97;10952983;26;20791;-19
2024/05/08 03:14:01;;;;;;;14.90;7.70;;;;;;;10.13;100.00;102335.28;10926879;26;20774;-19
2024/05/08 03:19:05;;;;;;;12.68;7.25;;;;;;;10.08;100.00;102321.91;10940501;26;20561;-20
2024/05/08 03:24:08;;;;;;;15.50;8.02;;;;;;;10.03;100.00;102333.44;10950969;26;21814;-20
2024/05/08 03:29:15;;;;;;;13.00;7.15;;;;;;;10.01;100.00;102334.78;10943539;26;20681;-20
2024/05/08 03:34:19;;;;;;;15.65;7.65;;;;;;;9.99;100.00;102343.13;10950562;26;20438;-20
2024/05/08 03:39:23;;;;;;;14.65;7.47;;;;;;;10.07;100.00;102347.13;10911925;26;21599;-20
2024/05/08 03:44:29;;;;;;;13.97;7.57;;;;;;;10.16;99.92;102352.72;10953814;26;21162;-19
2024/05/08 03:49:33;;;;;;;17.17;7.70;;;;;;;10.22;99.80;102363.16;10938890;26;20400;-20
2024/05/08 03:54:37;;;;;;;15.45;7.60;;;;;;;10.26;99.51;102366.91;10933793;26;20046;-20
2024/05/08 03:59:43;;;;;;;13.98;7.00;;;;;;;10.28;99.53;102370.13;10948352;26;20022;-20
2024/05/08 04:04:47;;;;;;;13.27;6.75;;;;;;;10.35;97.72;102376.00;10947070;26;20022;-21
2024/05/08 04:09:51;;;;;;;13.77;7.00;;;;;;;10.36;97.23;102376.81;10944724;26;20118;-20
2024/05/08 04:14:58;;;;;;;14.50;6.65;;;;;;;10.38;96.94;102377.31;10898446;26;20121;-19
2024/05/08 04:20:01;;;;;;;13.45;6.20;;;;;;;10.37;96.53;102386.47;10948540;26;20737;-19
2024/05/08 04:25:08;;;;;;;13.32;6.10;;;;;;;10.42;97.42;102391.00;10948504;26;20086;-19
2024/05/08 04:30:15;;;;;;;12.98;6.25;;;;;;;10.43;96.99;102390.72;10955188;26;20117;-20
2024/05/08 04:35:19;;;;;;;12.43;6.18;;;;;;;10.51;97.31;102400.09;10937845;26;20053;-19
2024/05/08 04:40:22;;;;;;;13.98;6.28;;;;;;;10.50;95.67;102410.03;10938680;26;20048;-20
2024/05/08 04:45:29;;;;;;;11.63;5.93;;;;;;;10.59;94.64;102402.19;10902706;26;23740;-19
2024/05/08 04:50:34;;;;;;;10.82;5.90;;;;;;;10.70;95.08;102403.78;10921695;26;20023;-19
2024/05/08 04:55:38;;;;;;;13.48;6.30;;;;;;;10.74;94.07;102414.75;10936028;26;20524;-16
2024/05/08 05:00:45;;;;;;;14.05;5.88;;;;;;;10.88;93.55;102411.19;10919556;26;20537;-16
2024/05/08 05:05:49;;;;;;;11.98;6.43;;;;;;;10.92;92.90;102411.44;10918021;26;20677;-16
2024/05/08 05:10:53;;;;;;;10.70;5.65;;;;;;;11.02;92.81;102408.69;10948580;26;20011;-16
2024/05/08 05:15:59;;;;;;;13.43;6.57;;;;;;;11.06;92.88;102412.41;10944684;26;20553;-17
2024/05/08 05:21:03;;;;;;;14.77;6.35;;;;;;;11.23;91.95;102417.41;10933171;26;20865;-17
2024/05/08 05:26:07;;;;;;;12.07;5.78;;;;;;;11.28;91.27;102418.16;10947446;26;20152;-16
2024/05/08 05:36:33;;;;;;;11.35;5.65;;;;;;;11.50;89.85;102409.63;10858670;26;20015;-16
2024/05/08 05:45:45;;;;;;;11.02;5.45;;;;;;;11.64;89.02;102421.31;10944948;26;20029;-17
2024/05/08 05:47:03;;;;;;;10.57;5.50;;;;;;;11.65;88.33;102427.50;10936476;26;20018;-17
2024/05/08 05:52:07;;;;;;;10.25;5.50;;;;;;;11.67;88.09;102434.22;10915259;26;20715;-17
2024/05/08 05:57:11;;;;;;;9.07;5.22;;;;;;;11.86;87.43;102441.59;10939041;26;20023;-16
2024/05/08 06:02:18;;;;;;;12.02;5.65;;;;;;;12.02;85.54;102436.84;10942704;26;20482;-16
2024/05/08 06:07:21;;;;;;;9.40;5.35;;;;;;;12.03;85.23;102441.13;10903976;26;20638;-17
2024/05/08 06:12:25;;;;;;;11.23;5.53;;;;;;;12.17;84.70;102450.94;10942300;26;20066;-18
2024/05/08 06:17:32;;;;;;;8.50;4.82;;;;;;;12.28;84.96;102451.66;10932590;26;20491;-17
2024/05/08 06:22:36;;;;;;;8.23;5.10;;;;;;;12.24;83.71;102459.47;10936300;26;20011;-15
2024/05/08 06:27:40;;;;;;;9.05;5.32;;;;;;;12.23;82.86;102449.78;10934162;26;20026;-17
2024/05/08 06:32:46;;;;;;;11.82;5.75;;;;;;;12.51;83.91;102456.22;10929215;26;20031;-17
2024/05/08 06:37:50;;;;;;;10.55;5.85;;;;;;;12.40;83.67;102454.72;10929318;26;20027;-16
2024/05/08 06:42:54;;;;;;;9.70;5.63;;;;;;;12.52;83.06;102457.81;10927806;26;20612;-17
2024/05/08 06:48:01;;;;;;;14.25;5.90;;;;;;;12.83;83.10;102468.22;10929874;26;20015;-16
2024/05/08 06:53:05;;;;;;;14.00;5.78;;;;;;;13.25;81.68;102462.72;10930072;26;20312;-17
2024/05/08 06:58:10;;;;;;;13.55;6.53;;;;;;;12.99;81.75;102466.09;10934303;26;20650;-16
2024/05/08 07:03:19;;;;;;;11.30;5.80;;;;;;;13.23;82.01;102478.41;10928851;26;20938;-16
2024/05/08 07:08:23;;;;;;;11.15;6.20;;;;;;;13.20;79.20;102478.97;10933716;26;20607;-18
2024/05/08 07:13:26;;;;;;;12.10;5.55;;;;;;;13.54;80.76;102486.84;10935220;26;21197;-18
2024/05/08 07:18:33;;;;;;;10.68;5.82;;;;;;;13.86;80.41;102487.94;10948719;26;20174;-17
2024/05/08 07:23:37;;;;;;;10.63;5.88;;;;;;;13.71;78.62;102494.41;10948214;26;20506;-17
2024/05/08 07:28:41;;;;;;;10.23;5.10;;;;;;;13.77;77.89;102500.53;10906541;26;20111;-16
2024/05/08 07:33:48;;;;;;;9.25;5.32;;;;;;;13.89;78.27;102503.53;10949434;26;20031;-16
2024/05/08 07:38:52;;;;;;;11.85;5.38;;;;;;;14.19;75.76;102510.28;10916095;26;20506;-16
2024/05/08 07:43:55;;;;;;;9.65;5.15;;;;;;;14.25;75.80;102513.69;10923868;26;20108;-19
2024/05/08 07:49:02;;;;;;;10.55;5.57;;;;;;;14.45;76.81;102522.22;10940171;26;20643;-19
2024/05/08 07:54:06;;;;;;;10.90;5.25;;;;;;;14.09;75.65;102522.09;10936352;26;20015;-19
2024/05/08 07:59:09;;;;;;;9.15;5.57;;;;;;;14.23;75.43;102521.28;10953554;26;20711;-20
2024/05/08 08:04:16;;;;;;;10.13;5.43;;;;;;;14.69;75.74;102515.81;10943267;26;20549;-20
2024/05/08 08:09:20;;;;;;;12.02;5.55;;;;;;;14.54;75.11;102519.63;10932153;26;20022;-20
2024/05/08 08:14:23;;;;;;;9.00;5.32;;;;;;;14.91;76.82;102512.34;10938281;26;20006;-20
2024/05/08 08:19:30;;;;;;;9.30;5.50;;;;;;;14.31;74.51;102518.69;10943725;26;20743;-19
2024/05/08 08:24:34;;;;;;;12.20;5.28;;;;;;;14.50;76.48;102503.19;10957049;26;20010;-20
2024/05/08 08:29:39;;;;;;;;;;;;;;;14.24;75.93;102503.97;10954793;26;20105;-21
2024/05/08 08:34:46;;;;;;;10.50;5.35;;;;;;;14.55;75.71;102506.91;10952818;26;19933;-20
2024/05/08 08:39:49;;;;;;;12.95;5.68;;;;;;;14.71;76.16;102505.47;10949620;26;20652;-19
2024/05/08 08:44:57;;;;;;;11.27;5.75;;;;;;;14.27;75.35;102509.59;10962713;26;20012;-20
2024/05/08 08:50:03;;;;;;;8.90;5.40;;;;;;;14.31;74.29;102509.78;10962318;26;24044;-20
2024/05/08 08:55:08;;;;;;;10.90;5.72;;;;;;;14.77;74.81;102515.09;10954275;26;20019;-20
2024/05/08 09:00:12;;;;;;;10.68;5.10;;;;;;;14.79;74.74;102512.88;10940551;26;20011;-20
2024/05/08 09:05:19;;;;;;;10.32;5.00;;;;;;;14.87;76.38;102524.88;10951529;26;20018;-20
2024/05/08 09:10:23;;;;;;;9.57;5.32;;;;;;;15.02;73.90;102522.69;10946827;26;20006;-20
2024/05/08 09:15:28;;;;;;;11.60;5.25;;;;;;;14.75;75.02;102520.81;10930414;26;20517;-20
2024/05/08 09:20:35;;;;;;;9.75;5.38;;;;;;;14.38;76.94;102516.44;10921613;26;20668;-20
2024/05/08 09:25:39;;;;;;;13.45;5.07;;;;;;;14.45;76.50;102524.13;10933833;26;20028;-20
2024/05/08 09:30:43;;;;;;;8.95;5.10;;;;;;;14.57;75.89;102512.81;10954855;26;20011;-20
2024/05/08 09:35:54;;;;;;;10.13;4.85;;;;;;;14.72;76.45;102521.41;10956026;26;20116;-20
2024/05/08 09:41:00;;;;;;;9.23;4.80;;;;;;;14.72;77.74;102532.22;10939310;26;20011;-20
2024/05/08 09:46:08;;;;;;;8.57;4.80;;;;;;;14.04;76.12;102532.19;10948115;26;21773;-20
2024/05/08 09:51:22;;;;;;;7.35;4.53;;;;;;;14.69;76.11;102521.22;10930100;26;20645;-21
2024/05/08 09:56:26;;;;;;;7.20;4.53;;;;;;;14.91;76.28;102534.78;10954018;26;20190;-20
2024/05/08 10:01:32;;;;;;;8.00;4.65;;;;;;;14.89;76.46;102530.78;10947205;26;20349;-20
2024/05/08 10:06:47;;;;;;;8.65;4.50;;;;;;;15.08;72.12;102534.19;10944201;26;20895;-20
2024/05/08 10:12:01;;;;;;;9.02;4.47;;;;;;;15.12;72.49;102541.38;10907038;26;20029;-20
2024/05/08 10:17:10;;;;;;;6.37;4.07;;;;;;;15.05;72.20;102530.19;10918205;26;20012;-20
2024/05/08 10:22:29;;;;;;;7.00;4.30;;;;;;;15.52;72.19;102538.06;10935846;26;20058;-20
2024/05/08 10:27:37;;;;;;;9.25;4.20;;;;;;;15.62;70.89;102541.31;10934190;26;20011;-21
2024/05/08 10:32:43;;;;;;;8.00;4.78;;;;;;;15.81;68.74;102543.84;10941572;26;21272;-20
2024/05/08 10:37:49;;;;;;;7.53;4.47;;;;;;;15.78;69.14;102547.97;10940867;26;20425;-20
2024/05/08 10:42:53;;;;;;;6.72;4.07;;;;;;;16.36;71.60;102546.22;10942873;26;20011;-20
2024/05/08 10:47:57;;;;;;;;;;;;;;;16.31;68.19;102538.25;10948275;26;20401;-19
2024/05/08 10:53:04;;;;;;;6.88;4.43;;;;;;;16.56;68.90;102542.94;10946820;26;20139;-20
2024/05/08 10:58:08;;;;;;;5.90;3.53;;;;;;;15.92;66.84;102539.75;10944183;26;20718;-20
2024/05/08 11:03:12;;;;;;;8.48;4.40;;;;;;;15.84;68.65;102543.22;10944297;26;20016;-19
2024/05/08 11:08:21;;;;;;;;;;;;;;;16.03;72.14;102543.00;10938621;26;20736;-20
2024/05/08 11:13:26;;;;;;;14.98;8.18;;;;;;;15.77;68.41;102546.38;10955863;26;20267;-20
2024/05/08 11:18:29;;;;;;;5.82;3.67;;;;;;;15.92;69.88;102550.59;10929734;26;20016;-20
2024/05/08 11:23:36;;;;;;;7.07;4.30;;;;;;;16.22;68.24;102546.34;10969188;26;20011;-20
2024/05/08 11:28:40;;;;;;;6.72;4.03;;;;;;;15.69;69.77;102552.53;10972815;26;20579;-20
2024/05/08 11:33:44;;;;;;;8.23;4.10;;;;;;;15.97;70.16;102550.47;10967267;26;20814;-20
2024/05/08 11:38:50;;;;;;;;;;;;;;;16.00;69.20;102554.47;10950669;26;20025;-20
2024/05/08 11:43:56;;;;;;;6.20;4.25;;;;;;;15.91;70.67;102554.41;10948668;26;19945;-21
2024/05/08 11:49:01;;;;;;;6.63;3.95;;;;;;;15.60;69.60;102551.66;10912502;26;20038;-20
2024/05/08 11:54:07;;;;;;;6.82;4.07;;;;;;;15.74;70.42;102557.03;10942402;26;20030;-20
2024/05/08 11:59:11;;;;;;;9.25;4.05;;;;;;;15.86;69.64;102548.31;10932454;26;20410;-21
2024/05/08 12:04:15;;;;;;;6.10;4.22;;;;;;;15.74;71.08;102551.59;10937879;26;20066;-20
2024/05/08 12:09:21;;;;;;;6.47;3.45;;;;;;;16.06;69.36;102553.22;10945595;26;20015;-17
2024/05/08 12:14:25;;;;;;;7.35;3.83;;;;;;;16.13;70.47;102548.22;10957290;26;20029;-16
2024/05/08 12:19:29;;;;;;;5.13;3.20;;;;;;;16.37;69.18;102556.78;10941001;26;20022;-17
2024/05/08 12:24:35;;;;;;;5.88;2.78;;;;;;;16.39;67.41;102556.44;10945783;26;20118;-17
2024/05/08 12:29:39;;;;;;;5.07;2.65;;;;;;;16.19;68.13;102557.81;10949037;26;20610;-17
2024/05/08 12:34:43;;;;;;;6.85;3.20;;;;;;;16.64;67.23;102550.31;10964021;26;20007;-17
2024/05/08 12:39:52;;;;;;;4.82;2.78;;;;;;;16.51;67.61;102556.66;10954356;26;20125;-17
2024/05/08 12:44:56;;;;;;;6.28;2.60;;;;;;;16.54;65.86;102553.31;10948208;26;20109;-17
2024/05/08 12:50:00;;;;;;;5.28;3.00;;;;;;;16.24;66.43;102554.97;10950111;26;20023;-18
2024/05/08 12:55:07;;;;;;;4.75;2.58;;;;;;;16.54;69.02;102558.75;10949264;26;20011;-17
2024/05/08 13:00:11;;;;;;;5.50;2.70;;;;;;;16.38;66.33;102554.84;10941439;26;20024;-18
2024/05/08 13:05:15;;;;;;;4.93;2.72;;;;;;;16.25;65.99;102558.47;10941757;26;20576;-18
2024/05/08 13:10:23;;;;;;;5.70;2.50;;;;;;;16.85;65.41;102558.66;10935312;26;20127;-18
2024/05/08 13:15:29;;;;;;;3.58;2.33;;;;;;;16.88;64.21;102554.50;10944211;26;20007;-18
2024/05/08 13:20:33;;;;;;;5.50;2.58;;;;;;;16.92;64.35;102547.34;10934712;26;21330;-18
2024/05/08 13:25:39;;;;;;;3.92;2.42;;;;;;;17.32;66.54;102548.84;10953637;26;20730;-16
2024/05/08 13:30:54;;;;;;;4.45;2.50;;;;;;;17.01;63.11;102551.69;10877516;25;20453;-17
2024/05/08 13:35:58;;;;;;;6.68;2.40;;;;;;;17.12;62.62;102551.38;10854478;26;20016;-17
2024/05/08 13:41:01;;;;;;;;;;;;;;;17.68;63.57;102553.94;10855559;26;20177;-17
2024/05/08 13:46:08;;;;;;;3.95;2.58;;;;;;;17.14;64.52;102543.72;10866957;26;19934;-18
2024/05/08 13:51:12;;;;;;;5.32;3.10;;;;;;;17.37;62.23;102551.41;10837004;26;20056;-18
2024/05/08 13:56:16;;;;;;;5.75;2.90;;;;;;;17.05;61.70;102544.50;10829775;26;20012;-17
2024/05/08 14:01:22;;;;;;;;;;;;;;;17.58;64.04;102543.38;10866747;25;20038;-17
2024/05/08 14:06:27;;;;;;;4.55;2.95;;;;;;;16.95;61.98;102547.50;10839241;26;21890;-16
2024/05/08 14:11:31;;;;;;;4.53;2.63;;;;;;;17.24;62.05;102554.28;10840280;26;20033;-16
2024/05/08 14:16:37;;;;;;;6.93;3.58;;;;;;;16.75;66.37;102548.09;10839380;26;20012;-17
2024/05/08 14:21:41;;;;;;;5.75;3.53;;;;;;;16.82;65.48;102553.06;10869464;26;21157;-17
2024/05/08 14:26:45;;;;;;;;;;;;;;;16.81;65.61;102559.59;10867089;26;20517;-17
2024/05/08 14:31:51;;;;;;;6.40;3.63;;;;;;;16.97;64.45;102561.56;10847614;26;19942;-17
2024/05/08 14:36:55;;;;;;;7.00;3.60;;;;;;;16.71;66.89;102566.94;10847865;26;20144;-17
2024/05/08 14:41:59;;;;;;;5.05;3.42;;;;;;;16.55;65.50;102575.81;10784886;26;20087;-17
2024/05/08 14:47:06;;;;;;;;;;;;;;;16.62;64.61;102573.44;10792103;26;20825;-16
2024/05/08 14:52:10;;;;;;;6.30;3.85;;;;;;;16.72;65.75;102575.88;10839502;26;20602;-17
2024/05/08 14:57:14;;;;;;;;;;;;;;;16.45;64.09;102565.25;10801660;26;20126;-15
2024/05/08 15:02:20;;;;;;;6.22;3.10;;;;;;;16.70;65.07;102564.53;10804313;26;19934;-18
2024/05/08 15:07:24;;;;;;;6.15;3.20;;;;;;;16.43;65.44;102574.50;10813958;26;20012;-17
2024/05/08 15:12:28;;;;;;;5.25;2.80;;;;;;;16.42;64.41;102572.91;10806951;26;20016;-17
2024/05/08 15:17:35;;;;;;;5.28;3.15;;;;;;;16.67;64.94;102568.66;10805751;26;23217;-17
2024/05/08 15:22:39;;;;;;;5.65;3.50;;;;;;;16.74;67.39;102568.22;10829514;26;20054;-17
2024/05/08 15:27:42;;;;;;;;;;;;;;;16.67;63.73;102565.16;10796257;26;20027;-18
2024/05/08 15:32:49;;;;;;;5.82;3.55;;;;;;;16.61;64.20;102582.69;10812348;26;20012;-18
2024/05/08 15:37:53;;;;;;;6.18;3.58;;;;;;;16.56;63.30;102570.06;10787510;26;20620;-17
2024/05/08 15:42:56;;;;;;;;;;;;;;;16.50;64.79;102565.09;10828727;26;21029;-18
2024/05/08 15:48:03;;;;;;;6.30;3.65;;;;;;;16.68;64.93;102567.56;10819271;26;20750;-16
2024/05/08 15:53:07;;;;;;;5.72;3.33;;;;;;;16.59;65.27;102550.47;10836329;26;20384;-17
2024/05/08 15:58:12;;;;;;;;;;;;;;;16.67;63.30;102551.59;10794506;26;21987;-18
2024/05/08 16:03:18;;;;;;;6.78;3.67;;;;;;;16.35;63.74;102563.63;10810815;26;21876;-17
2024/05/08 16:08:22;;;;;;;6.22;4.00;;;;;;;16.55;65.68;102559.53;10747087;26;20592;-18
2024/05/08 16:13:26;;;;;;;7.78;4.18;;;;;;;16.50;66.87;102556.97;10727109;26;20393;-18
2024/05/08 16:18:33;;;;;;;8.80;4.10;;;;;;;16.64;67.30;102553.03;10719990;26;20064;-17
2024/05/08 16:23:38;;;;;;;7.22;4.07;;;;;;;16.58;66.42;102554.28;10707621;26;20021;-17
2024/05/08 16:28:44;;;;;;;6.95;4.35;;;;;;;16.64;66.38;102546.78;10743951;26;21777;-18
2024/05/08 16:33:50;;;;;;;8.50;4.47;;;;;;;16.68;67.39;102545.06;10726511;26;20054;-18
2024/05/08 16:38:54;;;;;;;8.52;4.43;;;;;;;16.51;67.81;102543.09;10739736;26;20010;-18
2024/05/08 16:43:57;;;;;;;;;;;;;;;16.62;66.92;102538.19;10716232;26;20017;-17
2024/05/08 16:49:04;;;;;;;5.38;3.80;;;;;;;16.34;66.68;102537.59;10725963;26;20979;-18
2024/05/08 16:54:08;;;;;;;8.77;4.50;;;;;;;16.45;66.47;102554.41;10734297;26;20963;-18
2024/05/08 16:59:11;;;;;;;8.75;4.30;;;;;;;16.17;67.94;102549.19;10719487;26;20013;-18
2024/05/08 17:04:18;;;;;;;7.20;3.88;;;;;;;16.36;68.64;102554.38;10751961;26;20090;-18
2024/05/08 17:09:22;;;;;;;6.75;4.05;;;;;;;16.10;66.88;102543.38;10714621;26;20026;-18
2024/05/08 17:14:26;;;;;;;7.15;4.10;;;;;;;16.08;67.80;102551.03;10707534;26;20676;-17
2024/05/08 17:19:32;;;;;;;;;;;;;;;16.24;68.25;102554.16;10774373;26;20023;-17
2024/05/08 17:24:36;;;;;;;7.75;4.03;;;;;;;16.14;68.50;102555.22;10758126;26;20457;-18
2024/05/08 17:29:39;;;;;;;;;;;;;;;16.03;68.56;102554.63;10744613;26;20028;-18
2024/05/08 17:34:46;;;;;;;8.10;4.10;;;;;;;16.14;69.27;102563.38;10730573;26;20112;-17
2024/05/08 17:39:50;;;;;;;10.13;4.57;;;;;;;15.92;69.76;102558.72;10714235;26;20175;-17
2024/05/08 17:44:53;;;;;;;7.57;4.35;;;;;;;15.90;69.64;102560.16;10720062;26;20090;-17
2024/05/08 17:50:00;;;;;;;6.65;3.78;;;;;;;15.97;71.89;102560.50;10729246;26;22879;-18
2024/05/08 17:55:04;;;;;;;7.88;4.07;;;;;;;15.97;72.43;102564.00;10709495;26;20036;-18
2024/05/08 18:00:09;;;;;;;6.53;4.10;;;;;;;15.82;71.37;102560.91;10731947;26;20014;-18
2024/05/08 18:05:16;;;;;;;6.53;3.97;;;;;;;15.68;73.03;102567.19;10734065;26;21835;-19
2024/05/08 18:10:20;;;;;;;11.35;4.75;;;;;;;15.68;73.06;102569.88;10737225;26;20100;-18
2024/05/08 18:15:24;;;;;;;8.23;4.35;;;;;;;15.58;72.85;102567.44;10732222;26;20899;-18
2024/05/08 18:20:30;;;;;;;8.98;5.03;;;;;;;15.39;72.33;102570.31;10735888;26;20017;-19
2024/05/08 18:25:34;;;;;;;8.00;4.70;;;;;;;15.41;74.22;102570.81;10727345;26;20020;-18
2024/05/08 18:30:38;;;;;;;8.00;4.60;;;;;;;15.24;74.41;102570.66;10745651;26;20028;-17
2024/05/08 18:35:46;;;;;;;7.25;4.43;;;;;;;15.04;75.43;102571.09;10743953;26;20604;-18
2024/05/08 18:40:50;;;;;;;7.75;3.97;;;;;;;14.82;78.51;102574.50;10728545;26;20496;-18
2024/05/08 18:45:53;;;;;;;7.28;4.22;;;;;;;14.58;78.91;102574.69;10735521;26;20036;-18
2024/05/08 18:51:02;;;;;;;9.13;4.50;;;;;;;14.23;80.44;102578.84;10756160;26;20013;-18
2024/05/08 18:56:08;;;;;;;6.38;4.00;;;;;;;14.07;81.92;102577.53;10739720;26;24425;-18
2024/05/08 19:01:12;;;;;;;8.57;4.30;;;;;;;13.86;83.46;102577.88;10738325;26;20667;-17
2024/05/08 19:06:18;;;;;;;7.55;4.00;;;;;;;13.65;84.76;102578.47;10728171;26;20514;-17
2024/05/08 19:11:23;;;;;;;9.35;4.68;;;;;;;13.39;87.46;102580.72;10719786;26;20027;-18
2024/05/08 19:16:27;;;;;;;9.13;4.57;;;;;;;13.18;87.95;102589.09;10734627;26;20012;-17
2024/05/08 19:21:33;;;;;;;9.45;4.68;;;;;;;13.07;89.27;102593.03;10736255;26;20804;-17
2024/05/08 19:26:37;;;;;;;8.75;4.75;;;;;;;12.82;90.03;102596.84;10729916;26;20285;-17
2024/05/08 19:31:41;;;;;;;8.23;4.07;;;;;;;12.73;90.48;102601.28;10721720;26;20228;-16
2024/05/08 19:36:48;;;;;;;8.18;4.00;;;;;;;12.55;93.03;102597.41;10740013;26;20017;-18
2024/05/08 19:41:52;;;;;;;7.72;4.68;;;;;;;12.36;93.07;102607.31;10708435;26;20010;-17
2024/05/08 19:46:56;;;;;;;9.27;4.90;;;;;;;12.13;94.09;102616.91;10727393;26;20405;-18
2024/05/08 19:52:02;;;;;;;9.85;5.05;;;;;;;12.01;94.56;102621.88;10752897;26;20285;-18
2024/05/08 19:57:07;;;;;;;10.07;4.88;;;;;;;11.92;95.30;102624.38;10761747;26;20013;-16
2024/05/08 20:02:11;;;;;;;8.35;4.53;;;;;;;11.86;96.22;102630.88;10742232;26;20632;-16
2024/05/08 20:07:18;;;;;;;11.55;5.22;;;;;;;11.83;96.42;102636.81;10741075;26;20009;-18
2024/05/08 20:12:22;;;;;;;7.90;4.53;;;;;;;11.74;97.17;102643.84;10702338;26;20013;-16
2024/05/08 20:17:30;;;;;;;7.95;4.57;;;;;;;11.48;97.49;102639.72;10733353;26;23995;-16
2024/05/08 20:22:36;;;;;;;9.55;4.30;;;;;;;11.33;98.50;102638.72;10749945;26;20059;-17
2024/05/08 20:27:40;;;;;;;7.57;4.03;;;;;;;11.23;97.21;102637.97;10726619;26;20754;-17
2024/05/08 20:32:44;;;;;;;8.52;4.22;;;;;;;11.09;98.23;102637.75;10711732;26;20013;-17
2024/05/08 20:37:50;;;;;;;9.85;4.45;;;;;;;10.96;99.55;102647.22;10724937;26;20800;-17
2024/05/08 20:42:54;;;;;;;9.35;4.60;;;;;;;10.92;100.00;102638.09;10730338;26;20017;-17
2024/05/08 20:47:58;;;;;;;10.65;5.15;;;;;;;10.77;100.00;102638.09;10699401;26;20292;-17
2024/05/08 20:53:06;;;;;;;9.25;4.95;;;;;;;10.74;99.60;102643.22;10725818;26;20459;-17
2024/05/08 20:58:10;;;;;;;9.35;4.32;;;;;;;10.73;100.00;102639.72;10726454;26;20337;-19
2024/05/08 21:03:14;;;;;;;9.52;4.97;;;;;;;10.59;100.00;102626.03;10750059;26;20996;-17
2024/05/08 21:08:20;;;;;;;8.93;4.95;;;;;;;10.45;100.00;102637.59;10723172;26;20013;-17
2024/05/08 21:13:24;;;;;;;9.85;5.32;;;;;;;10.40;100.00;102644.59;10720364;26;20013;-17
2024/05/08 21:18:28;;;;;;;11.07;5.35;;;;;;;10.31;100.00;102642.72;10723964;26;20162;-17
2024/05/08 21:23:34;;;;;;;8.57;4.68;;;;;;;10.24;100.00;102640.31;10736858;26;20461;-17
2024/05/08 21:28:38;;;;;;;10.25;5.45;;;;;;;10.20;100.00;102633.06;10739560;26;20663;-17
2024/05/08 21:33:43;;;;;;;9.32;5.07;;;;;;;10.02;100.00;102631.69;10754040;26;20097;-18
2024/05/08 21:38:49;;;;;;;9.07;4.68;;;;;;;9.90;100.00;102637.31;10720617;26;20020;-18
2024/05/08 21:43:53;;;;;;;8.65;4.47;;;;;;;9.93;100.00;102646.72;10744512;26;20031;-17
2024/05/08 21:48:57;;;;;;;12.20;5.38;;;;;;;9.97;100.00;102647.78;10760732;26;21539;-16
2024/05/08 21:54:03;;;;;;;9.90;5.38;;;;;;;9.96;100.00;102643.50;10740659;26;20447;-17
2024/05/08 21:59:07;;;;;;;12.65;5.28;;;;;;;9.90;100.00;102642.69;10755088;26;20012;-17
2024/05/08 22:04:11;;;;;;;13.63;5.90;;;;;;;9.88;100.00;102642.16;10736715;26;22111;-16
2024/05/08 22:09:18;;;;;;;11.93;5.70;;;;;;;9.81;100.00;102646.97;10719701;26;20013;-16
2024/05/08 22:14:22;;;;;;;11.45;5.90;;;;;;;9.69;100.00;102651.78;10719497;26;20083;-17
2024/05/08 22:19:26;;;;;;;11.00;5.65;;;;;;;9.57;100.00;102643.97;10713516;26;20035;-20
2024/05/08 22:24:33;;;;;;;9.90;5.32;;;;;;;9.56;100.00;102652.28;10719512;26;20029;-20
2024/05/08 22:29:37;;;;;;;8.27;4.50;;;;;;;9.40;100.00;102644.19;10715145;26;20017;-20
2024/05/08 22:34:41;;;;;;;7.13;3.83;;;;;;;9.28;100.00;102643.63;10727462;26;23792;-20
2024/05/08 22:39:48;;;;;;;7.28;3.80;;;;;;;9.23;100.00;102650.84;10744645;26;20604;-20
2024/05/08 22:44:52;;;;;;;6.45;3.70;;;;;;;9.20;100.00;102646.81;10698612;26;20676;-21
2024/05/08 22:49:56;;;;;;;8.07;4.05;;;;;;;9.13;100.00;102640.84;10738240;26;20035;-19
2024/05/08 22:55:02;;;;;;;8.82;4.57;;;;;;;9.13;100.00;102641.66;10756653;26;20024;-20
2024/05/08 23:00:08;;;;;;;11.07;5.03;;;;;;;9.08;100.00;102657.72;10729022;26;25145;-20
2024/05/08 23:05:12;;;;;;;8.70;4.57;;;;;;;9.07;100.00;102650.75;10733303;26;20026;-20
2024/05/08 23:10:18;;;;;;;9.40;5.20;;;;;;;9.05;100.00;102658.25;10720764;26;20025;-21
2024/05/08 23:15:22;;;;;;;12.52;5.22;;;;;;;8.95;100.00;102650.16;10752497;26;20840;-21
2024/05/08 23:20:26;;;;;;;11.45;5.90;;;;;;;8.90;100.00;102644.78;10721642;26;20025;-19
2024/05/08 23:25:32;;;;;;;7.15;3.92;;;;;;;8.69;100.00;102645.69;10745379;26;21126;-19